Time;durP1;ratioP1;P1;durP2;ratioP2;P2;SDS_P1;SDS_P2;PMS_P1;PMS_P2;Temp;Humidity;BMP_temperature;BMP_pressure;BME280_temperature;BME280_humidity;BME280_pressure;Samples;Min_cycle;Max_cycle;Signal;HPM_P1;HPM_P2
2022/05/25 00:01:11;;;;;;;2.97;1.50;;;13.40;99.90;;;;;;5014038;28;20707;-82
2022/05/25 00:03:37;;;;;;;2.70;1.50;;;13.40;99.90;;;;;;4996463;28;20220;-82
2022/05/25 00:06:07;;;;;;;2.40;1.20;;;13.30;99.90;;;;;;4994961;28;20252;-82
2022/05/25 00:08:32;;;;;;;4.43;1.63;;;13.30;99.90;;;;;;5014255;28;20409;-81
2022/05/25 00:10:58;;;;;;;4.67;1.80;;;13.30;99.90;;;;;;4996342;28;21033;-81
2022/05/25 00:13:25;;;;;;;2.63;1.20;;;13.30;99.90;;;;;;4996286;28;20185;-82
2022/05/25 00:15:50;;;;;;;3.33;1.70;;;13.30;99.90;;;;;;4995700;28;20594;-82
2022/05/25 00:18:16;;;;;;;2.80;1.50;;;13.30;99.90;;;;;;4996072;28;20436;-82
2022/05/25 00:20:42;;;;;;;2.37;1.20;;;13.40;99.90;;;;;;4996156;28;20209;-82
2022/05/25 00:23:08;;;;;;;3.63;1.60;;;13.30;99.90;;;;;;4996149;28;21013;-82
2022/05/25 00:25:38;;;;;;;3.17;1.50;;;13.30;99.90;;;;;;4995575;28;20201;-81
2022/05/25 00:28:09;;;;;;;2.87;1.63;;;13.30;99.90;;;;;;4995911;28;20431;-82
2022/05/25 00:30:35;;;;;;;2.43;1.40;;;13.30;99.90;;;;;;4995797;28;20455;-82
2022/05/25 00:33:02;;;;;;;4.83;1.67;;;13.20;99.90;;;;;;5013432;28;20419;-81
2022/05/25 00:35:30;;;;;;;4.13;2.10;;;13.10;99.90;;;;;;4995473;28;20959;-81
2022/05/25 00:37:56;;;;;;;2.50;1.30;;;13.10;99.90;;;;;;5013203;28;20419;-81
2022/05/25 00:40:29;;;;;;;7.73;2.00;;;13.00;99.90;;;;;;5013256;28;20447;-82
2022/05/25 00:42:54;;;;;;;3.50;1.80;;;12.90;99.90;;;;;;4995769;28;20415;-81
2022/05/25 00:45:20;;;;;;;3.60;1.80;;;12.90;99.90;;;;;;4995262;28;20967;-82
2022/05/25 00:47:49;;;;;;;3.23;1.60;;;12.90;99.90;;;;;;4995355;28;20181;-81
2022/05/25 00:50:18;;;;;;;3.20;1.67;;;12.90;99.90;;;;;;4995382;28;20232;-82
2022/05/25 00:52:47;;;;;;;2.60;1.47;;;12.90;99.90;;;;;;4995679;28;20428;-82
2022/05/25 00:55:19;;;;;;;3.03;1.73;;;13.00;99.90;;;;;;5013516;28;20463;-82
2022/05/25 00:57:48;;;;;;;3.00;2.00;;;13.00;99.90;;;;;;5014129;28;20396;-83
2022/05/25 01:00:23;;;;;;;3.50;2.47;;;13.00;99.90;;;;;;4995763;28;20428;-82
2022/05/25 01:02:53;;;;;;;3.23;1.70;;;12.90;99.90;;;;;;4995599;28;20871;-81
2022/05/25 01:05:29;;;;;;;3.10;2.10;;;12.80;99.90;;;;;;4995603;28;20450;-82
2022/05/25 01:07:55;;;;;;;2.67;1.63;;;12.80;99.90;;;;;;4995603;28;20409;-82
2022/05/25 01:10:59;;;;;;;2.43;1.40;;;12.70;99.90;;;;;;4995504;28;20792;-82
2022/05/25 01:13:55;;;;;;;3.40;2.00;;;12.70;99.90;;;;;;4973015;28;20197;-81
2022/05/25 01:16:23;;;;;;;3.00;1.60;;;12.60;99.90;;;;;;5012737;28;20443;-82
2022/05/25 01:19:13;;;;;;;3.20;1.70;;;12.50;99.90;;;;;;4995154;28;20424;-82
2022/05/25 01:22:20;;;;;;;3.40;2.07;;;12.50;99.90;;;;;;4995289;28;20983;-83
2022/05/25 01:25:21;;;;;;;3.10;1.87;;;12.40;99.90;;;;;;4990903;28;20460;-82
2022/05/25 01:27:50;;;;;;;3.10;1.70;;;12.40;99.90;;;;;;4994792;28;20399;-82
2022/05/25 01:30:28;;;;;;;3.13;1.80;;;12.50;99.90;;;;;;4994959;28;20458;-82
2022/05/25 01:33:12;;;;;;;3.97;1.80;;;12.50;99.90;;;;;;4995367;28;20451;-82
2022/05/25 01:35:58;;;;;;;2.60;1.47;;;12.40;99.90;;;;;;4994723;28;20471;-81
2022/05/25 01:38:33;;;;;;;3.37;1.80;;;12.30;99.90;;;;;;4995244;28;20420;-82
2022/05/25 01:41:17;;;;;;;3.30;2.13;;;12.30;99.90;;;;;;5012645;28;20504;-83
2022/05/25 01:43:51;;;;;;;3.30;1.83;;;12.20;99.90;;;;;;5012648;28;20419;-81
2022/05/25 01:46:22;;;;;;;4.60;1.60;;;12.20;99.90;;;;;;5012318;28;20450;-82
2022/05/25 01:48:49;;;;;;;4.40;2.07;;;12.20;99.90;;;;;;4994849;28;20409;-82
2022/05/25 01:51:21;;;;;;;3.77;2.30;;;12.20;99.90;;;;;;5012122;28;20459;-81
2022/05/25 01:53:51;;;;;;;3.10;1.70;;;12.20;99.90;;;;;;5012478;28;20412;-82
2022/05/25 01:56:20;;;;;;;2.77;1.73;;;12.20;99.90;;;;;;4994444;28;20452;-81
2022/05/25 01:58:50;;;;;;;4.30;2.03;;;12.20;99.90;;;;;;4994564;28;20474;-81
2022/05/25 02:01:16;;;;;;;3.30;1.93;;;12.10;99.90;;;;;;4994640;28;20627;-83
2022/05/25 02:06:53;;;;;;;3.40;1.90;;;12.00;99.90;;;;;;5012268;28;20438;-82
2022/05/25 02:09:59;;;;;;;3.20;1.97;;;12.10;99.90;;;;;;5012011;28;20397;-82
2022/05/25 02:12:37;;;;;;;2.97;1.77;;;12.00;99.90;;;;;;4993483;28;20463;-81
2022/05/25 02:15:21;;;;;;;3.33;1.77;;;11.90;99.90;;;;;;5011981;28;20474;-81
2022/05/25 02:18:02;;;;;;;4.03;2.03;;;11.90;99.90;;;;;;4994132;28;20499;-82
2022/05/25 02:20:49;;;;;;;4.07;2.17;;;11.90;99.90;;;;;;5012041;28;20423;-81
2022/05/25 02:23:17;;;;;;;3.40;1.90;;;11.90;99.90;;;;;;5012001;28;20535;-82
2022/05/25 02:26:00;;;;;;;4.17;2.00;;;12.00;99.90;;;;;;5011522;28;20996;-82
2022/05/25 02:28:32;;;;;;;4.23;2.30;;;12.00;99.90;;;;;;4994324;28;20969;-82
2022/05/25 02:30:59;;;;;;;4.13;1.87;;;12.10;99.90;;;;;;4997281;28;20982;-81
2022/05/25 02:33:31;;;;;;;3.67;2.03;;;12.00;99.90;;;;;;4997918;28;20415;-82
2022/05/25 02:35:58;;;;;;;2.80;1.90;;;11.90;99.90;;;;;;4997734;28;20513;-82
2022/05/25 02:38:24;;;;;;;7.27;2.17;;;11.90;99.90;;;;;;5015577;28;20499;-82
2022/05/25 02:40:50;;;;;;;3.87;1.90;;;11.90;99.90;;;;;;5015620;28;20427;-82
2022/05/25 02:43:15;;;;;;;3.83;1.90;;;11.90;99.90;;;;;;4998132;28;20637;-81
2022/05/25 02:45:42;;;;;;;2.60;1.70;;;11.90;99.90;;;;;;4997366;28;20201;-82
2022/05/25 02:48:08;;;;;;;3.47;1.70;;;11.90;99.90;;;;;;4997850;28;20217;-82
2022/05/25 02:50:34;;;;;;;3.73;2.20;;;12.00;99.90;;;;;;4997927;28;20852;-82
2022/05/25 02:53:00;;;;;;;2.83;1.70;;;12.00;99.90;;;;;;4997857;28;20180;-82
2022/05/25 02:55:25;;;;;;;3.90;2.10;;;12.00;99.90;;;;;;5014949;28;20966;-82
2022/05/25 02:57:51;;;;;;;4.47;1.80;;;11.90;99.90;;;;;;4997522;28;20610;-82
2022/05/25 03:00:17;;;;;;;3.50;2.10;;;11.80;99.90;;;;;;4997496;28;20212;-82
2022/05/25 03:02:43;;;;;;;3.00;1.73;;;11.90;99.90;;;;;;4997720;28;20184;-82
2022/05/25 03:05:10;;;;;;;3.17;1.93;;;11.80;99.90;;;;;;4997262;28;20954;-81
2022/05/25 03:07:36;;;;;;;2.93;1.90;;;11.90;99.90;;;;;;4997248;28;20185;-82
2022/05/25 03:10:03;;;;;;;3.47;2.07;;;12.00;99.90;;;;;;5015135;28;20837;-82
2022/05/25 03:12:29;;;;;;;3.37;1.80;;;11.90;99.90;;;;;;4997214;28;20451;-82
2022/05/25 03:14:54;;;;;;;3.10;1.93;;;12.00;99.90;;;;;;5014585;28;20455;-82
2022/05/25 03:17:20;;;;;;;3.87;1.80;;;12.00;99.90;;;;;;4997029;28;20180;-82
2022/05/25 03:19:51;;;;;;;6.27;2.00;;;11.90;99.90;;;;;;4997257;28;20184;-82
2022/05/25 03:22:17;;;;;;;4.50;2.37;;;12.00;99.90;;;;;;4997301;28;20191;-82
2022/05/25 03:24:42;;;;;;;4.03;2.67;;;12.00;99.90;;;;;;5014807;28;20432;-81
2022/05/25 03:27:08;;;;;;;3.53;2.07;;;12.00;99.90;;;;;;4996686;28;20651;-81
2022/05/25 03:29:34;;;;;;;5.07;2.00;;;12.00;99.90;;;;;;4997124;28;20644;-81
2022/05/25 03:32:00;;;;;;;7.80;2.17;;;12.00;99.90;;;;;;5014488;28;20256;-82
2022/05/25 03:34:26;;;;;;;3.53;2.33;;;12.00;99.90;;;;;;4996948;28;20699;-82
2022/05/25 03:36:55;;;;;;;4.40;2.07;;;12.00;99.90;;;;;;4996536;28;20871;-82
2022/05/25 03:39:22;;;;;;;3.50;2.30;;;12.00;99.90;;;;;;4997474;28;20453;-82
2022/05/25 03:41:55;;;;;;;3.77;2.50;;;12.00;99.90;;;;;;5000115;28;20412;-83
2022/05/25 03:44:24;;;;;;;2.77;2.00;;;12.00;99.90;;;;;;5000455;28;20420;-83
2022/05/25 03:46:50;;;;;;;3.67;2.10;;;12.00;99.90;;;;;;5017238;28;20416;-82
2022/05/25 03:49:17;;;;;;;2.60;1.63;;;12.00;99.90;;;;;;5000289;28;20431;-83
2022/05/25 03:51:43;;;;;;;3.03;2.00;;;12.00;99.90;;;;;;4999496;28;20456;-83
2022/05/25 03:54:09;;;;;;;3.63;1.90;;;12.10;99.90;;;;;;5000351;28;20475;-82
2022/05/25 03:56:35;;;;;;;3.67;2.20;;;12.10;99.90;;;;;;5016571;28;20416;-83
2022/05/25 03:59:00;;;;;;;3.80;1.90;;;12.00;99.90;;;;;;5017428;28;20408;-83
2022/05/25 04:01:26;;;;;;;7.10;2.53;;;12.10;99.90;;;;;;5017475;28;20181;-83
2022/05/25 04:03:52;;;;;;;4.90;2.53;;;12.10;99.90;;;;;;4999709;28;20177;-83
2022/05/25 04:06:17;;;;;;;4.10;1.97;;;12.00;99.90;;;;;;4999419;28;20228;-83
2022/05/25 04:08:43;;;;;;;5.13;2.53;;;12.00;99.90;;;;;;5017015;28;20593;-83
2022/05/25 04:11:08;;;;;;;3.80;2.07;;;11.90;99.90;;;;;;5016807;28;20239;-83
2022/05/25 04:13:34;;;;;;;6.07;2.10;;;12.00;99.90;;;;;;4999327;28;20177;-83
2022/05/25 04:16:00;;;;;;;4.03;2.20;;;11.90;99.90;;;;;;5016368;28;20197;-83
2022/05/25 04:18:25;;;;;;;4.13;2.63;;;12.00;99.90;;;;;;4999094;28;20188;-83
2022/05/25 04:20:51;;;;;;;4.77;2.47;;;12.00;99.90;;;;;;4998806;28;20185;-83
2022/05/25 04:23:16;;;;;;;4.27;2.87;;;12.00;99.90;;;;;;4998227;28;20235;-83
2022/05/25 04:25:42;;;;;;;4.67;2.40;;;12.00;99.90;;;;;;4998243;28;20335;-83
2022/05/25 04:28:08;;;;;;;4.87;2.33;;;12.00;99.90;;;;;;4998701;28;20220;-83
2022/05/25 04:30:33;;;;;;;9.23;2.63;;;12.00;99.90;;;;;;4998334;28;20416;-83
2022/05/25 04:32:59;;;;;;;5.97;2.50;;;12.00;99.90;;;;;;4998011;28;20231;-83
2022/05/25 04:35:26;;;;;;;4.50;2.40;;;12.00;99.90;;;;;;4997932;28;20197;-83
2022/05/25 04:37:52;;;;;;;3.90;2.03;;;12.10;99.90;;;;;;4997715;28;20181;-82
2022/05/25 04:40:37;;;;;;;3.67;2.47;;;12.10;99.90;;;;;;4998211;28;20891;-82
2022/05/25 04:43:10;;;;;;;4.97;2.70;;;12.10;99.90;;;;;;4997502;28;20424;-83
2022/05/25 04:45:38;;;;;;;5.17;2.53;;;12.20;99.90;;;;;;5015374;28;20486;-83
2022/05/25 04:48:05;;;;;;;4.77;2.10;;;12.30;99.90;;;;;;4998277;28;20424;-83
2022/05/25 04:50:35;;;;;;;8.20;3.97;;;12.20;99.90;;;;;;5014983;28;20416;-83
2022/05/25 04:53:04;;;;;;;3.63;2.40;;;12.30;99.90;;;;;;5014658;28;20395;-83
2022/05/25 04:58:20;;;;;;;6.20;2.57;;;12.40;99.90;;;;;;5015459;28;20407;-83
2022/05/25 05:00:45;;;;;;;4.17;1.90;;;12.50;99.90;;;;;;5014954;28;20438;-81
2022/05/25 05:03:11;;;;;;;3.57;2.10;;;12.60;99.90;;;;;;4995295;28;20503;-81
2022/05/25 05:05:36;;;;;;;3.53;2.13;;;12.60;99.90;;;;;;4994771;28;20205;-81
2022/05/25 05:08:02;;;;;;;2.83;1.77;;;12.60;99.90;;;;;;4995403;28;20718;-81
2022/05/25 05:10:27;;;;;;;4.13;2.43;;;12.60;99.90;;;;;;4995185;28;20367;-81
2022/05/25 05:12:53;;;;;;;4.20;2.20;;;12.60;99.90;;;;;;5012771;28;20169;-81
2022/05/25 05:15:18;;;;;;;4.30;2.47;;;12.80;99.90;;;;;;4994864;28;20208;-82
2022/05/25 05:17:44;;;;;;;4.57;2.53;;;12.90;99.90;;;;;;4995076;28;20173;-82
2022/05/25 05:20:10;;;;;;;3.10;2.10;;;12.90;99.90;;;;;;4995139;28;20645;-81
2022/05/25 05:22:36;;;;;;;4.73;2.20;;;13.10;99.90;;;;;;4994880;28;20184;-81
2022/05/25 05:25:02;;;;;;;5.10;2.40;;;13.10;99.90;;;;;;4994792;28;20444;-82
2022/05/25 05:27:28;;;;;;;3.80;1.93;;;13.10;99.90;;;;;;4994651;28;20185;-81
2022/05/25 05:30:00;;;;;;;4.57;2.57;;;13.30;99.90;;;;;;4994945;28;20424;-81
2022/05/25 05:32:27;;;;;;;4.60;3.40;;;13.20;99.90;;;;;;4994815;28;20201;-81
2022/05/25 05:34:53;;;;;;;3.77;2.40;;;13.30;99.90;;;;;;5012369;28;20436;-81
2022/05/25 05:37:42;;;;;;;6.10;2.83;;;13.30;99.90;;;;;;4994331;28;20412;-82
2022/05/25 05:40:10;;;;;;;4.47;2.47;;;13.30;99.90;;;;;;4994637;28;20180;-81
2022/05/25 05:42:41;;;;;;;3.80;1.97;;;13.40;99.90;;;;;;4994643;28;20420;-81
2022/05/25 05:45:14;;;;;;;3.90;2.17;;;13.50;99.90;;;;;;4994512;28;20440;-82
2022/05/25 05:48:04;;;;;;;3.80;2.30;;;13.50;99.90;;;;;;4994411;28;20838;-81
2022/05/25 05:52:58;;;;;;;4.90;3.20;;;13.60;99.90;;;;;;5027892;28;20887;-78
2022/05/25 05:55:24;;;;;;;4.13;2.40;;;13.60;99.90;;;;;;5016304;28;20427;-77
2022/05/25 05:57:50;;;;;;;4.23;2.37;;;13.70;99.90;;;;;;5010211;28;20500;-77
2022/05/25 06:00:16;;;;;;;4.90;2.47;;;13.80;99.90;;;;;;5012773;28;20823;-77
2022/05/25 06:02:43;;;;;;;4.87;2.70;;;13.90;99.90;;;;;;5013113;28;20527;-77
2022/05/25 06:05:10;;;;;;;4.20;2.30;;;13.90;99.90;;;;;;5016725;28;20419;-76
2022/05/25 06:07:36;;;;;;;3.40;1.90;;;13.80;99.90;;;;;;5016520;28;20443;-78
2022/05/25 06:10:03;;;;;;;3.53;2.13;;;13.80;99.90;;;;;;5017061;28;20415;-77
2022/05/25 06:12:31;;;;;;;4.93;2.17;;;13.80;99.90;;;;;;5016217;28;20467;-78
2022/05/25 06:14:57;;;;;;;4.70;2.00;;;13.80;99.90;;;;;;5017086;28;20562;-78
2022/05/25 06:20:07;;;;;;;6.87;2.60;;;14.20;99.90;;;;;;5018111;28;20180;-77
2022/05/25 06:22:33;;;;;;;3.63;2.00;;;14.20;99.90;;;;;;5016616;28;20423;-77
2022/05/25 06:24:59;;;;;;;4.43;1.63;;;14.10;99.90;;;;;;5016282;28;20432;-75
2022/05/25 06:27:25;;;;;;;3.80;1.70;;;14.10;99.90;;;;;;5016494;28;20498;-78
2022/05/25 06:29:51;;;;;;;3.30;1.93;;;14.30;99.90;;;;;;5016690;28;20284;-77
2022/05/25 06:32:19;;;;;;;3.17;1.60;;;14.40;99.90;;;;;;5016081;28;20288;-77
2022/05/25 06:34:48;;;;;;;3.40;1.77;;;14.50;99.90;;;;;;5015407;28;20185;-76
2022/05/25 06:37:16;;;;;;;3.67;1.90;;;14.70;99.90;;;;;;5014269;28;20432;-77
2022/05/25 06:39:42;;;;;;;4.30;1.57;;;14.60;99.90;;;;;;5016342;28;20507;-77
2022/05/25 06:42:08;;;;;;;3.27;1.60;;;14.70;99.90;;;;;;5017544;28;20456;-78
2022/05/25 06:44:34;;;;;;;4.30;1.93;;;14.70;99.90;;;;;;5016573;28;20184;-77
2022/05/25 06:46:59;;;;;;;6.77;1.77;;;14.80;99.90;;;;;;5018406;28;20444;-78
2022/05/25 06:49:25;;;;;;;2.80;1.60;;;14.80;99.90;;;;;;5018565;28;20184;-78
2022/05/25 06:51:51;;;;;;;2.70;1.50;;;14.90;99.90;;;;;;5016813;28;20624;-77
2022/05/25 06:54:18;;;;;;;3.70;1.50;;;15.00;99.90;;;;;;5016039;28;20415;-76
2022/05/25 06:56:45;;;;;;;2.70;1.50;;;15.10;99.90;;;;;;5016025;28;20536;-79
2022/05/25 06:59:11;;;;;;;3.57;1.53;;;15.20;99.90;;;;;;5017534;28;20496;-78
2022/05/25 07:01:38;;;;;;;2.20;1.10;;;;;;;;;;5018169;28;20443;-81
2022/05/25 07:04:04;;;;;;;2.70;1.30;;;15.40;99.90;;;;;;5002446;28;21017;-80
2022/05/25 07:06:30;;;;;;;2.47;1.33;;;15.50;99.90;;;;;;5019912;28;20431;-80
2022/05/25 07:08:56;;;;;;;3.80;1.57;;;15.60;99.90;;;;;;5017985;28;20428;-79
2022/05/25 07:11:23;;;;;;;2.77;1.23;;;15.70;99.90;;;;;;5017912;28;20467;-81
2022/05/25 07:13:50;;;;;;;2.33;1.17;;;15.70;99.90;;;;;;5018625;28;20612;-79
2022/05/25 07:16:18;;;;;;;3.70;1.43;;;15.70;99.90;;;;;;5018317;28;20412;-80
2022/05/25 07:18:45;;;;;;;2.83;1.23;;;15.60;99.90;;;;;;5018784;28;20447;-79
2022/05/25 07:21:19;;;;;;;3.43;1.13;;;15.60;99.90;;;;;;5015390;28;20466;-79
2022/05/25 07:23:48;;;;;;;2.10;0.83;;;15.80;99.90;;;;;;5017097;28;20954;-79
2022/05/25 07:26:14;;;;;;;2.20;1.00;;;16.00;99.90;;;;;;5018102;28;20448;-80
2022/05/25 07:28:40;;;;;;;2.93;1.10;;;16.10;99.90;;;;;;5018601;28;20527;-80
2022/05/25 07:31:09;;;;;;;2.93;1.20;;;16.10;99.90;;;;;;5015375;28;20547;-80
2022/05/25 07:33:38;;;;;;;2.20;1.07;;;16.10;99.90;;;;;;5018318;28;20263;-80
2022/05/25 07:36:05;;;;;;;4.87;1.20;;;16.10;99.90;;;;;;5014536;28;20417;-79
2022/05/25 07:38:31;;;;;;;4.30;1.57;;;16.10;99.90;;;;;;5015144;28;20428;-80
2022/05/25 07:40:58;;;;;;;3.00;1.20;;;16.20;99.90;;;;;;5016684;28;21005;-82
2022/05/25 07:43:27;;;;;;;2.10;1.00;;;16.40;99.90;;;;;;5018168;28;20416;-78
2022/05/25 07:45:53;;;;;;;3.17;1.10;;;16.60;99.90;;;;;;5015411;28;20478;-78
2022/05/25 07:48:19;;;;;;;3.13;1.20;;;16.60;99.90;;;;;;5014872;28;20924;-77
2022/05/25 07:50:45;;;;;;;2.10;1.03;;;16.70;99.90;;;;;;5013376;28;20452;-78
2022/05/25 07:56:00;;;;;;;2.57;1.13;;;16.70;99.90;;;;;;5003838;28;20436;-78
2022/05/25 07:58:26;;;;;;;2.17;0.93;;;16.90;99.90;;;;;;4977569;28;20457;-79
2022/05/25 08:00:55;;;;;;;2.53;1.00;;;17.20;99.90;;;;;;4984137;28;20518;-78
2022/05/25 08:06:06;;;;;;;2.63;1.03;;;18.60;99.90;;;;;;5015116;28;20419;-79
2022/05/25 08:08:32;;;;;;;4.57;1.00;;;19.70;99.90;;;;;;4997045;28;20994;-76
2022/05/25 08:11:01;;;;;;;5.40;1.40;;;21.20;99.90;;;;;;4997853;28;20558;-78
2022/05/25 08:13:28;;;;;;;2.30;0.90;;;21.10;99.90;;;;;;4996599;28;20645;-80
2022/05/25 08:15:53;;;;;;;2.40;1.00;;;21.70;99.90;;;;;;4996385;28;20435;-80
2022/05/25 08:18:19;;;;;;;3.23;0.90;;;22.10;99.90;;;;;;4996181;28;20436;-79
2022/05/25 08:20:46;;;;;;;2.20;0.80;;;22.40;99.90;;;;;;4996230;28;20715;-80
2022/05/25 08:23:15;;;;;;;2.27;1.00;;;23.00;99.90;;;;;;4996272;28;20431;-79
2022/05/25 08:25:42;;;;;;;3.63;1.20;;;23.60;94.80;;;;;;4996108;28;20424;-79
2022/05/25 08:28:08;;;;;;;3.60;1.00;;;23.80;93.40;;;;;;4995343;28;20443;-79
2022/05/25 08:30:37;;;;;;;2.77;1.00;;;24.00;91.70;;;;;;4996059;28;20420;-78
2022/05/25 08:33:03;;;;;;;2.17;0.90;;;24.00;90.80;;;;;;4996675;28;20439;-77
2022/05/25 08:35:30;;;;;;;2.60;0.80;;;24.30;88.70;;;;;;4995972;28;20417;-78
2022/05/25 08:37:59;;;;;;;2.93;1.10;;;24.90;83.30;;;;;;4996137;28;20452;-77
2022/05/25 08:40:28;;;;;;;2.60;0.90;;;25.20;78.60;;;;;;4995684;28;20412;-78
2022/05/25 08:43:03;;;;;;;2.40;1.00;;;25.40;77.90;;;;;;4996312;28;20575;-77
2022/05/25 08:45:44;;;;;;;2.10;0.80;;;25.60;72.70;;;;;;4995413;28;20510;-76
2022/05/25 08:48:13;;;;;;;2.60;0.80;;;26.10;66.90;;;;;;4996315;28;20453;-77
2022/05/25 08:50:39;;;;;;;3.73;0.90;;;26.30;63.40;;;;;;4996193;28;20787;-77
2022/05/25 08:53:10;;;;;;;2.60;0.90;;;26.80;64.90;;;;;;4996001;28;20451;-77
2022/05/25 08:55:44;;;;;;;2.20;0.90;;;27.30;63.90;;;;;;4995489;28;20834;-77
2022/05/25 08:58:12;;;;;;;2.93;0.80;;;28.00;58.10;;;;;;4996311;28;20443;-77
2022/05/25 09:00:40;;;;;;;1.93;0.73;;;28.20;57.30;;;;;;5012551;28;20423;-77
2022/05/25 09:03:35;;;;;;;2.50;1.00;;;29.30;55.20;;;;;;5011573;28;20421;-78
2022/05/25 09:06:10;;;;;;;2.03;0.80;;;29.10;54.00;;;;;;4995452;28;20412;-78
2022/05/25 09:08:58;;;;;;;2.27;0.80;;;29.60;51.70;;;;;;5011973;28;20440;-77
2022/05/25 09:11:30;;;;;;;2.40;1.00;;;29.90;50.00;;;;;;4995434;28;20555;-77
2022/05/25 09:14:00;;;;;;;4.63;0.90;;;30.70;51.10;;;;;;5011865;28;20452;-77
2022/05/25 09:16:31;;;;;;;2.00;0.70;;;30.90;47.50;;;;;;5012014;28;20473;-77
2022/05/25 09:19:10;;;;;;;1.83;0.63;;;30.40;45.50;;;;;;5012032;28;20416;-77
2022/05/25 09:22:08;;;;;;;1.87;0.70;;;30.30;45.60;;;;;;5012164;28;20455;-78
2022/05/25 09:24:35;;;;;;;2.67;0.80;;;30.40;44.80;;;;;;4986597;28;20432;-79
2022/05/25 09:27:02;;;;;;;2.70;0.90;;;29.70;44.20;;;;;;5013084;28;20501;-79
2022/05/25 09:29:28;;;;;;;2.10;0.80;;;30.10;44.90;;;;;;5013184;28;20794;-79
2022/05/25 09:32:28;;;;;;;2.00;0.80;;;30.20;42.00;;;;;;5012718;28;20554;-79
2022/05/25 09:35:17;;;;;;;2.30;0.73;;;29.40;42.70;;;;;;5012892;28;20842;-79
2022/05/25 09:38:03;;;;;;;2.10;0.90;;;28.90;43.50;;;;;;5012623;28;20435;-78
2022/05/25 09:40:56;;;;;;;2.20;0.80;;;28.90;44.90;;;;;;5012877;28;20478;-78
2022/05/25 09:43:25;;;;;;;2.93;1.87;;;29.10;46.40;;;;;;4993844;28;21188;-79
2022/05/25 09:45:55;;;;;;;2.83;0.93;;;28.60;43.90;;;;;;5012362;28;20462;-79
2022/05/25 09:48:27;;;;;;;4.27;1.00;;;28.70;45.00;;;;;;5011706;28;20490;-78
2022/05/25 09:51:13;;;;;;;3.33;0.90;;;29.10;44.80;;;;;;5011754;28;20474;-78
2022/05/25 09:53:50;;;;;;;2.23;0.90;;;30.20;45.40;;;;;;5012740;28;20985;-78
2022/05/25 09:56:35;;;;;;;2.00;0.90;;;30.20;42.60;;;;;;5012131;28;20447;-79
2022/05/25 09:59:19;;;;;;;2.20;0.90;;;28.80;42.80;;;;;;4996488;28;20452;-78
2022/05/25 10:01:48;;;;;;;2.73;0.77;;;28.60;42.60;;;;;;5012066;28;20427;-79
2022/05/25 10:04:32;;;;;;;2.13;0.80;;;30.10;44.50;;;;;;5012773;28;20796;-79
2022/05/25 10:06:58;;;;;;;2.57;0.70;;;31.60;41.80;;;;;;5012142;28;20816;-79
2022/05/25 10:09:29;;;;;;;3.80;0.70;;;31.30;40.40;;;;;;5011617;28;20482;-78
2022/05/25 10:11:57;;;;;;;3.80;0.80;;;30.70;39.20;;;;;;4988149;28;20499;-78
2022/05/25 10:14:32;;;;;;;1.80;0.70;;;30.30;41.00;;;;;;4985818;28;20844;-79
2022/05/25 10:17:16;;;;;;;1.87;0.70;;;30.30;41.90;;;;;;4979808;28;20440;-79
2022/05/25 10:19:49;;;;;;;2.20;0.90;;;29.10;40.00;;;;;;4979921;28;20452;-77
2022/05/25 10:22:44;;;;;;;3.03;0.90;;;27.50;42.40;;;;;;4980775;28;20428;-79
2022/05/25 10:25:28;;;;;;;2.00;0.70;;;26.80;45.40;;;;;;4980581;28;20824;-79
2022/05/25 10:27:56;;;;;;;2.37;0.80;;;26.30;45.80;;;;;;4978584;28;20447;-79
2022/05/25 10:36:52;;;;;;;2.27;0.83;;;24.90;46.80;;;;;;4995340;28;20389;-78
2022/05/25 10:39:27;;;;;;;3.10;1.10;;;24.60;49.90;;;;;;4979686;28;20416;-79
2022/05/25 10:42:18;;;;;;;2.70;1.00;;;24.10;47.10;;;;;;4980070;28;20926;-78
2022/05/25 10:45:08;;;;;;;2.30;0.93;;;23.40;49.30;;;;;;4979581;28;20415;-78
2022/05/25 10:47:50;;;;;;;3.80;1.10;;;22.90;48.70;;;;;;4979054;28;20481;-79
2022/05/25 10:50:55;;;;;;;1.90;0.70;;;22.90;49.50;;;;;;4989760;28;20486;-77
2022/05/25 10:53:41;;;;;;;2.20;0.90;;;22.60;50.20;;;;;;4997528;28;20552;-78
2022/05/25 10:56:33;;;;;;;2.70;0.87;;;22.00;50.60;;;;;;4992861;28;20422;-78
2022/05/25 10:59:26;;;;;;;2.00;0.70;;;21.90;53.20;;;;;;5012719;28;20510;-78
2022/05/25 11:02:24;;;;;;;2.97;0.90;;;22.20;55.50;;;;;;5015613;28;20764;-81
2022/05/25 11:04:53;;;;;;;2.20;0.97;;;22.60;55.30;;;;;;4979000;28;20423;-79
2022/05/25 11:07:35;;;;;;;2.03;0.87;;;22.50;53.60;;;;;;5013319;28;20455;-79
2022/05/25 11:10:28;;;;;;;2.10;0.80;;;22.50;52.60;;;;;;5001844;28;20478;-79
2022/05/25 11:13:36;;;;;;;2.00;0.90;;;22.00;54.00;;;;;;5001616;28;20966;-78
2022/05/25 11:16:32;;;;;;;2.00;0.90;;;21.80;56.50;;;;;;4941267;29;20434;-78
2022/05/25 11:19:17;;;;;;;2.00;0.80;;;22.00;56.50;;;;;;5017184;28;20841;-79
2022/05/25 11:21:54;;;;;;;2.40;1.00;;;22.00;55.70;;;;;;5016441;28;20786;-81
2022/05/25 11:24:39;;;;;;;2.93;1.10;;;22.10;54.30;;;;;;5014756;28;20412;-80
2022/05/25 11:27:28;;;;;;;2.23;0.93;;;22.30;55.00;;;;;;5016942;28;20439;-79
2022/05/25 11:30:09;;;;;;;2.70;0.90;;;22.10;54.80;;;;;;4993056;28;20423;-78
2022/05/25 11:32:53;;;;;;;2.87;1.00;;;21.90;58.00;;;;;;5019281;28;20547;-78
2022/05/25 11:35:41;;;;;;;2.20;0.90;;;22.30;60.80;;;;;;5020426;28;20424;-79
2022/05/25 11:38:28;;;;;;;2.57;0.80;;;22.50;58.50;;;;;;4999863;28;20498;-80
2022/05/25 11:41:09;;;;;;;2.63;0.90;;;22.30;53.50;;;;;;5014675;28;20458;-80
2022/05/25 11:43:43;;;;;;;2.27;0.97;;;22.00;54.50;;;;;;5016430;28;20850;-79
2022/05/25 11:46:09;;;;;;;2.90;0.97;;;22.20;56.30;;;;;;5015637;28;20407;-80
2022/05/25 11:49:15;;;;;;;2.77;0.83;;;22.30;55.80;;;;;;5015833;28;20446;-79
2022/05/25 11:52:19;;;;;;;2.10;0.80;;;22.30;58.40;;;;;;4999331;28;20304;-79
2022/05/25 11:54:57;;;;;;;2.20;0.87;;;22.30;55.70;;;;;;4998853;28;20416;-80
2022/05/25 11:57:39;;;;;;;2.47;1.00;;;22.10;56.40;;;;;;5008670;28;20459;-79
2022/05/25 12:00:27;;;;;;;2.40;1.00;;;21.80;56.00;;;;;;5005347;28;20448;-80
2022/05/25 12:03:29;;;;;;;3.00;1.00;;;21.70;58.40;;;;;;4993164;28;20798;-80
2022/05/25 12:06:04;;;;;;;2.83;1.10;;;21.40;58.50;;;;;;5014010;28;20423;-80
2022/05/25 12:08:54;;;;;;;2.17;0.80;;;21.40;59.20;;;;;;4998175;28;20443;-81
2022/05/25 12:11:26;;;;;;;2.20;1.00;;;21.50;62.00;;;;;;4998040;28;20570;-79
2022/05/25 12:14:23;;;;;;;2.17;0.90;;;21.40;61.00;;;;;;4998668;28;20416;-80
2022/05/25 12:16:54;;;;;;;2.23;1.10;;;21.40;61.80;;;;;;4978885;28;20436;-79
2022/05/25 12:19:32;;;;;;;2.40;1.10;;;21.30;61.20;;;;;;4996961;28;20543;-80
2022/05/25 12:22:03;;;;;;;2.10;0.80;;;21.30;61.80;;;;;;4996585;28;20561;-80
2022/05/25 12:24:37;;;;;;;2.00;0.93;;;21.30;59.40;;;;;;4998992;28;20430;-82
2022/05/25 12:27:20;;;;;;;2.30;1.00;;;21.10;60.70;;;;;;4998621;28;20436;-81
2022/05/25 12:30:00;;;;;;;2.30;0.90;;;21.10;60.50;;;;;;4999017;28;20455;-80
2022/05/25 12:32:28;;;;;;;2.30;1.10;;;21.50;62.00;;;;;;4998610;28;20475;-81
2022/05/25 12:34:55;;;;;;;3.23;0.80;;;22.10;58.00;;;;;;4998734;28;20408;-79
2022/05/25 12:37:33;;;;;;;2.30;1.07;;;22.30;60.90;;;;;;4998325;28;20509;-78
2022/05/25 12:40:01;;;;;;;3.27;0.90;;;22.30;57.30;;;;;;4999208;28;20508;-78
2022/05/25 12:42:26;;;;;;;2.60;0.80;;;22.10;57.50;;;;;;4997316;28;20435;-82
2022/05/25 12:50:57;;;;;;;3.00;0.90;;;22.70;57.80;;;;;;5015507;28;20461;-79
2022/05/25 12:53:49;;;;;;;2.00;0.90;;;22.90;61.70;;;;;;4997179;28;20424;-80
2022/05/25 12:56:18;;;;;;;2.37;0.90;;;23.00;58.90;;;;;;4997160;28;20503;-79
2022/05/25 12:58:46;;;;;;;2.03;0.90;;;23.40;56.60;;;;;;4997993;28;20444;-80
2022/05/25 13:01:27;;;;;;;2.20;1.00;;;23.50;57.00;;;;;;4998079;28;20478;-78
2022/05/25 13:03:56;;;;;;;2.40;0.90;;;23.40;54.80;;;;;;4998063;28;20423;-79
2022/05/25 13:06:46;;;;;;;2.17;0.90;;;23.00;54.50;;;;;;4997064;28;20428;-80
2022/05/25 13:09:41;;;;;;;2.40;0.90;;;22.80;54.60;;;;;;5013725;28;20436;-79
2022/05/25 13:12:35;;;;;;;2.07;0.80;;;22.30;53.30;;;;;;4997506;28;21104;-78
2022/05/25 13:15:01;;;;;;;2.10;0.90;;;22.00;55.70;;;;;;4997192;28;20420;-79
2022/05/25 13:17:46;;;;;;;2.40;1.23;;;22.00;59.70;;;;;;4997281;28;20526;-79
2022/05/25 13:20:47;;;;;;;2.20;0.80;;;22.30;58.80;;;;;;4996890;28;20459;-79
2022/05/25 13:23:51;;;;;;;2.27;0.97;;;22.60;55.60;;;;;;5014359;28;20420;-79
2022/05/25 13:26:24;;;;;;;2.10;0.80;;;22.80;54.30;;;;;;5013228;28;20873;-79
2022/05/25 13:28:58;;;;;;;2.10;0.80;;;23.10;56.20;;;;;;4997562;28;20423;-79
2022/05/25 13:31:29;;;;;;;2.00;0.80;;;23.40;55.00;;;;;;4996510;28;20487;-79
2022/05/25 13:33:59;;;;;;;2.20;0.90;;;23.50;54.70;;;;;;4997462;28;20428;-79
2022/05/25 13:36:28;;;;;;;3.67;0.97;;;23.70;51.00;;;;;;4996071;28;20424;-80
2022/05/25 13:39:06;;;;;;;2.43;1.10;;;23.10;51.80;;;;;;4996640;28;20431;-80
2022/05/25 13:41:45;;;;;;;3.30;1.00;;;23.00;53.20;;;;;;4996977;28;20515;-79
2022/05/25 13:44:20;;;;;;;2.00;0.80;;;23.00;52.40;;;;;;4997987;28;20841;-80
2022/05/25 13:47:04;;;;;;;2.10;0.90;;;23.10;52.60;;;;;;4997065;28;20815;-79